Time;durP1;ratioP1;P1;durP2;ratioP2;P2;SDS_P1;SDS_P2;PMS_P1;PMS_P2;Temp;Humidity;BMP_temperature;BMP_pressure;BME280_temperature;BME280_humidity;BME280_pressure;Samples;Min_cycle;Max_cycle;Signal;HPM_P1;HPM_P2
2023/05/11 00:01:44;;;;;;;1.50;1.10;;;;;;;11.89;100.00;154413.75;4969715;28;20933;-84
2023/05/11 00:04:11;;;;;;;1.50;0.90;;;;;;;11.94;100.00;154426.72;4938980;28;20861;-84
2023/05/11 00:06:37;;;;;;;2.13;1.20;;;;;;;11.95;100.00;154428.00;4973973;28;20459;-84
2023/05/11 00:09:04;;;;;;;1.90;1.33;;;;;;;11.94;100.00;154425.47;4973303;28;20897;-83
2023/05/11 00:11:31;;;;;;;1.80;1.20;;;;;;;11.93;100.00;154424.16;4955510;28;20424;-84
2023/05/11 00:13:57;;;;;;;1.83;1.10;;;;;;;11.88;100.00;154411.19;4955749;28;20475;-84
2023/05/11 00:16:25;;;;;;;1.70;1.10;;;;;;;11.87;100.00;154408.56;4940851;28;20456;-84
2023/05/11 00:18:51;;;;;;;2.67;1.60;;;;;;;11.87;100.00;154407.28;4968888;28;20466;-84
2023/05/11 00:21:18;;;;;;;1.53;1.07;;;;;;;11.91;100.00;154418.97;4971071;28;20821;-84
2023/05/11 00:23:45;;;;;;;1.60;1.50;;;;;;;11.87;100.00;154408.56;4966527;28;20559;-84
2023/05/11 00:26:11;;;;;;;1.40;1.20;;;;;;;11.90;100.00;154415.06;4970538;28;20460;-84
2023/05/11 00:28:38;;;;;;;1.67;1.17;;;;;;;11.89;100.00;154413.75;4955748;28;21063;-83
2023/05/11 00:31:05;;;;;;;2.00;1.20;;;;;;;11.88;100.00;154409.88;4971594;28;20463;-83
2023/05/11 00:33:32;;;;;;;2.90;1.43;;;;;;;11.87;100.00;154407.28;4956554;28;20537;-83
2023/05/11 00:35:59;;;;;;;4.57;1.40;;;;;;;11.87;100.00;154407.28;4952435;28;20460;-83
2023/05/11 00:38:26;;;;;;;2.10;1.23;;;;;;;11.81;100.00;154393.00;4954713;28;20494;-83
2023/05/11 00:40:53;;;;;;;2.07;1.30;;;;;;;11.81;100.00;154393.00;4969169;28;20963;-83
2023/05/11 00:43:19;;;;;;;1.27;1.00;;;;;;;11.80;100.00;154389.16;4942108;28;20470;-83
2023/05/11 00:45:46;;;;;;;2.43;1.10;;;;;;;11.80;100.00;154390.44;4969757;28;20466;-84
2023/05/11 00:48:13;;;;;;;2.93;1.30;;;;;;;11.77;100.00;154382.66;4973380;28;20453;-83
2023/05/11 00:50:42;;;;;;;1.50;1.30;;;;;;;11.77;100.00;154382.66;4955150;28;20464;-83
2023/05/11 00:53:10;;;;;;;1.43;1.00;;;;;;;11.78;100.00;154385.22;4955752;28;20469;-83
2023/05/11 00:55:37;;;;;;;1.87;1.10;;;;;;;11.85;100.00;154403.41;4962815;28;20480;-84
2023/05/11 00:58:04;;;;;;;1.57;1.20;;;;;;;11.86;100.00;154405.97;4970879;28;20467;-84
2023/05/11 01:00:31;;;;;;;3.33;1.03;;;;;;;11.76;100.00;154380.06;4969259;28;20466;-84
2023/05/11 01:02:57;;;;;;;1.87;1.00;;;;;;;11.76;100.00;154378.75;4968545;28;20535;-83
2023/05/11 01:05:25;;;;;;;1.77;0.90;;;;;;;11.77;100.00;154382.66;4971114;28;20464;-84
2023/05/11 01:07:58;;;;;;;3.10;1.80;;;;;;;11.74;100.00;154374.88;4953560;28;20472;-83
2023/05/11 01:10:32;;;;;;;2.00;1.50;;;;;;;11.72;100.00;154369.72;4968638;28;20499;-84
2023/05/11 01:13:02;;;;;;;1.67;1.23;;;;;;;11.79;100.00;154386.53;4937828;28;20457;-83
2023/05/11 01:15:35;;;;;;;4.40;1.17;;;;;;;11.74;100.00;154373.59;4953421;28;20571;-84
2023/05/11 01:18:12;;;;;;;1.67;1.10;;;;;;;11.77;100.00;154381.38;4957765;28;20829;-83
2023/05/11 01:20:39;;;;;;;1.70;1.33;;;;;;;11.75;100.00;154377.50;4953996;28;20480;-84
2023/05/11 01:23:21;;;;;;;2.30;1.40;;;;;;;11.73;100.00;154372.28;4954871;28;20459;-84
2023/05/11 01:25:57;;;;;;;1.30;1.00;;;;;;;11.68;100.00;154359.28;4955025;28;20877;-84
2023/05/11 01:28:34;;;;;;;2.23;1.20;;;;;;;11.67;100.00;154355.41;4924838;29;20528;-84
2023/05/11 01:31:06;;;;;;;3.30;1.67;;;;;;;11.71;100.00;154365.81;4930210;28;20456;-83
2023/05/11 01:33:34;;;;;;;1.97;1.10;;;;;;;11.65;100.00;154350.22;4961773;28;20451;-83
2023/05/11 01:36:04;;;;;;;2.20;1.03;;;;;;;11.63;100.00;154346.31;4956364;28;20809;-83
2023/05/11 01:38:33;;;;;;;1.67;1.03;;;;;;;11.65;100.00;154351.50;4974032;28;20451;-83
2023/05/11 01:41:00;;;;;;;2.40;1.00;;;;;;;11.66;100.00;154354.09;4949806;28;20459;-83
2023/05/11 01:43:28;;;;;;;3.20;1.50;;;;;;;11.66;100.00;154352.78;4940948;28;20464;-84
2023/05/11 01:45:59;;;;;;;1.23;0.90;;;;;;;11.70;100.00;154363.25;4962841;28;20460;-84
2023/05/11 01:48:29;;;;;;;1.40;1.10;;;;;;;11.71;100.00;154367.09;4939764;28;20460;-84
2023/05/11 01:50:59;;;;;;;1.87;1.00;;;;;;;11.67;100.00;154356.72;4951281;29;20987;-84
2023/05/11 01:53:26;;;;;;;2.23;1.10;;;;;;;11.61;100.00;154341.16;4953844;28;20448;-83
2023/05/11 01:55:54;;;;;;;1.23;1.03;;;;;;;11.62;100.00;154343.75;4970438;28;20525;-83
2023/05/11 01:58:21;;;;;;;1.80;1.00;;;;;;;11.61;100.00;154341.16;4933767;29;20520;-84
2023/05/11 02:00:48;;;;;;;1.23;0.83;;;;;;;11.65;100.00;154351.50;4961496;28;20449;-83
2023/05/11 02:03:15;;;;;;;2.00;0.90;;;;;;;11.58;100.00;154333.38;4952694;28;20500;-83
2023/05/11 02:05:44;;;;;;;1.30;0.70;;;;;;;11.61;100.00;154341.16;4969886;28;20463;-84
2023/05/11 02:08:11;;;;;;;4.10;1.17;;;;;;;11.62;100.00;154343.75;4953836;28;21262;-83
2023/05/11 02:10:38;;;;;;;2.00;0.97;;;;;;;11.63;100.00;154346.31;4966053;28;20887;-83
2023/05/11 02:13:06;;;;;;;1.83;0.97;;;;;;;11.65;100.00;154350.22;4940037;28;20475;-83
2023/05/11 02:15:34;;;;;;;1.30;1.00;;;;;;;11.63;100.00;154347.63;4958565;28;20487;-84
2023/05/11 02:18:01;;;;;;;2.23;1.07;;;;;;;11.59;100.00;154335.97;4936702;28;20924;-83
2023/05/11 02:20:28;;;;;;;1.50;1.00;;;;;;;11.63;100.00;154346.31;4953655;28;21053;-83
2023/05/11 02:22:56;;;;;;;1.40;0.93;;;;;;;11.65;100.00;154351.50;4946127;28;20459;-84
2023/05/11 02:25:23;;;;;;;1.80;1.10;;;;;;;11.67;100.00;154356.72;4956898;28;20458;-83
2023/05/11 02:27:50;;;;;;;1.87;1.00;;;;;;;11.66;100.00;154354.09;4953553;28;20957;-83
2023/05/11 02:30:17;;;;;;;1.80;1.30;;;;;;;11.67;100.00;154355.41;4951575;28;20479;-83
2023/05/11 02:32:48;;;;;;;1.37;1.10;;;;;;;11.67;100.00;154356.72;4948473;28;20486;-83
2023/05/11 02:35:17;;;;;;;2.23;1.20;;;;;;;11.68;100.00;154359.28;4967492;28;20448;-84
2023/05/11 02:37:46;;;;;;;1.77;1.20;;;;;;;11.61;100.00;154341.16;4937651;28;20492;-83
2023/05/11 02:40:18;;;;;;;1.80;1.40;;;;;;;11.60;100.00;154338.53;4936416;28;20459;-83
2023/05/11 02:42:49;;;;;;;1.80;1.00;;;;;;;11.62;100.00;154343.75;4980333;28;21058;-83
2023/05/11 02:45:17;;;;;;;2.07;1.40;;;;;;;11.64;100.00;154348.94;4953181;28;20479;-83
2023/05/11 02:47:45;;;;;;;1.80;1.50;;;;;;;11.61;100.00;154341.16;4956192;28;20451;-83
2023/05/11 02:50:16;;;;;;;1.90;1.67;;;;;;;11.60;100.00;154339.84;4950065;28;20875;-83
2023/05/11 02:52:47;;;;;;;3.13;1.87;;;;;;;11.56;100.00;154328.19;4960885;28;20466;-83
2023/05/11 02:55:16;;;;;;;2.27;1.70;;;;;;;11.56;100.00;154329.50;4948928;28;20968;-83
2023/05/11 02:57:44;;;;;;;3.70;1.80;;;;;;;11.56;100.00;154329.50;4931918;28;20456;-83
2023/05/11 03:00:12;;;;;;;1.80;1.50;;;;;;;11.52;100.00;154317.81;4963005;28;20468;-83
2023/05/11 03:02:38;;;;;;;1.70;1.47;;;;;;;11.52;100.00;154317.81;4970651;28;20442;-83
2023/05/11 03:05:09;;;;;;;1.77;1.60;;;;;;;11.53;100.00;154321.72;4952600;28;20455;-83
2023/05/11 03:07:36;;;;;;;9.80;3.30;;;;;;;11.50;100.00;154312.63;4931709;28;20895;-83
2023/05/11 03:10:03;;;;;;;2.60;1.40;;;;;;;11.47;100.00;154304.84;4960999;28;20484;-83
2023/05/11 03:12:37;;;;;;;2.50;1.80;;;;;;;11.47;100.00;154304.84;4937447;28;20776;-83
2023/05/11 03:15:05;;;;;;;1.70;1.40;;;;;;;11.47;100.00;154306.16;4952361;28;20455;-83
2023/05/11 03:17:34;;;;;;;3.57;1.43;;;;;;;11.47;100.00;154304.84;4945034;28;20461;-83
2023/05/11 03:20:02;;;;;;;2.50;1.47;;;;;;;11.47;100.00;154304.84;4937413;28;20473;-83
2023/05/11 03:22:30;;;;;;;2.40;1.60;;;;;;;11.49;100.00;154310.06;4952270;28;20976;-83
2023/05/11 03:24:57;;;;;;;2.47;1.53;;;;;;;11.44;100.00;154298.38;4957915;28;20516;-83
2023/05/11 03:27:24;;;;;;;1.70;1.20;;;;;;;11.45;100.00;154300.97;4967599;28;20457;-83
2023/05/11 03:29:52;;;;;;;2.50;1.67;;;;;;;11.42;100.00;154293.19;4937240;28;20482;-83
2023/05/11 03:32:19;;;;;;;2.77;1.40;;;;;;;11.42;100.00;154291.91;4936967;28;20495;-83
2023/05/11 03:34:45;;;;;;;3.33;2.00;;;;;;;11.41;100.00;154290.59;4936416;28;20978;-83
2023/05/11 03:37:14;;;;;;;1.93;1.60;;;;;;;11.43;100.00;154295.81;4961168;28;20982;-83
2023/05/11 03:39:44;;;;;;;2.03;1.63;;;;;;;11.45;100.00;154299.69;4963228;28;20494;-83
2023/05/11 03:42:12;;;;;;;1.90;1.40;;;;;;;11.41;100.00;154289.34;4955331;28;20473;-83
2023/05/11 03:44:39;;;;;;;3.40;1.70;;;;;;;11.39;100.00;154284.13;4969381;28;20463;-84
2023/05/11 03:47:07;;;;;;;2.30;1.70;;;;;;;11.37;100.00;154278.94;4962770;28;20509;-83
2023/05/11 03:49:36;;;;;;;1.57;1.40;;;;;;;11.34;100.00;154271.16;4957107;28;20580;-83
2023/05/11 03:52:03;;;;;;;1.47;1.20;;;;;;;11.34;100.00;154272.47;4952619;28;20563;-83
2023/05/11 03:54:30;;;;;;;1.90;1.70;;;;;;;11.33;100.00;154268.59;4970597;28;20462;-83
2023/05/11 03:56:56;;;;;;;2.70;1.50;;;;;;;11.34;100.00;154271.16;4972500;28;20470;-83
2023/05/11 03:59:23;;;;;;;1.67;1.40;;;;;;;11.30;100.00;154262.13;4956583;28;20448;-83
2023/05/11 04:01:51;;;;;;;2.07;1.70;;;;;;;11.32;100.00;154266.00;4936317;28;20463;-82
2023/05/11 04:04:20;;;;;;;2.00;1.60;;;;;;;11.37;100.00;154280.25;4944306;28;20460;-83
2023/05/11 04:06:46;;;;;;;3.20;1.37;;;;;;;11.32;100.00;154267.31;4954058;28;20451;-83
2023/05/11 04:09:16;;;;;;;1.63;1.30;;;;;;;11.34;100.00;154272.47;4955309;28;20479;-83
2023/05/11 04:11:43;;;;;;;1.70;1.40;;;;;;;11.34;100.00;154272.47;4951524;28;20470;-83
2023/05/11 04:14:10;;;;;;;2.40;1.37;;;;;;;11.30;100.00;154260.81;4981378;28;20817;-83
2023/05/11 04:16:36;;;;;;;2.00;1.40;;;;;;;11.31;100.00;154263.38;4976513;28;20460;-83
2023/05/11 04:19:03;;;;;;;1.73;1.30;;;;;;;11.33;100.00;154268.59;4954725;28;20492;-84
2023/05/11 04:21:31;;;;;;;1.97;1.33;;;;;;;11.32;100.00;154267.31;4935923;28;20448;-83
2023/05/11 04:23:57;;;;;;;2.53;1.60;;;;;;;11.32;100.00;154266.00;4955761;28;20456;-83
2023/05/11 04:26:25;;;;;;;2.23;1.63;;;;;;;11.32;100.00;154266.00;4972177;28;20439;-83
2023/05/11 04:28:51;;;;;;;5.20;1.73;;;;;;;11.33;100.00;154269.84;4942065;28;20985;-83
2023/05/11 04:31:18;;;;;;;2.53;1.40;;;;;;;11.34;100.00;154271.16;4967670;28;20480;-83
2023/05/11 04:33:44;;;;;;;1.87;1.60;;;;;;;11.30;100.00;154262.13;4970260;28;20475;-83
2023/05/11 04:36:11;;;;;;;2.10;1.20;;;;;;;11.30;100.00;154260.81;4955303;28;20469;-83
2023/05/11 04:38:40;;;;;;;1.83;1.70;;;;;;;11.32;100.00;154267.31;4948578;28;20586;-83
2023/05/11 04:41:08;;;;;;;1.90;1.53;;;;;;;11.34;100.00;154271.16;4973685;28;20438;-83
2023/05/11 04:43:35;;;;;;;1.80;1.57;;;;;;;11.36;100.00;154276.34;4949475;28;20539;-83
2023/05/11 04:46:02;;;;;;;2.53;1.60;;;;;;;11.35;100.00;154273.78;4953755;28;20856;-84
2023/05/11 04:48:29;;;;;;;2.10;1.50;;;;;;;11.32;100.00;154266.00;4943683;28;20464;-83
2023/05/11 04:50:56;;;;;;;2.97;2.47;;;;;;;11.32;100.00;154266.00;4957938;28;21007;-84
2023/05/11 04:53:27;;;;;;;2.10;1.60;;;;;;;11.32;100.00;154267.31;4965308;28;20455;-83
2023/05/11 04:55:55;;;;;;;2.53;1.50;;;;;;;11.40;100.00;154288.03;4936646;28;20455;-83
2023/05/11 04:58:22;;;;;;;2.30;2.10;;;;;;;11.40;100.00;154286.72;4962658;28;20545;-83
2023/05/11 05:00:49;;;;;;;1.90;1.70;;;;;;;11.39;100.00;154284.13;4966639;28;20581;-83
2023/05/11 05:03:15;;;;;;;2.80;1.80;;;;;;;11.38;100.00;154281.56;4955786;28;20516;-83
2023/05/11 05:05:42;;;;;;;2.00;1.70;;;;;;;11.39;100.00;154284.13;4963187;28;20452;-83
2023/05/11 05:08:09;;;;;;;2.00;1.80;;;;;;;11.43;100.00;154294.50;4950108;28;20464;-83
2023/05/11 05:10:36;;;;;;;2.10;1.80;;;;;;;11.38;100.00;154282.84;4961709;28;21123;-83
2023/05/11 05:13:04;;;;;;;2.10;1.77;;;;;;;11.41;100.00;154289.34;4953429;28;20472;-83
2023/05/11 05:15:30;;;;;;;2.10;1.47;;;;;;;11.41;100.00;154290.59;4950960;28;20548;-83
2023/05/11 05:17:58;;;;;;;2.70;2.20;;;;;;;11.44;100.00;154297.06;4971128;28;20462;-83
2023/05/11 05:20:25;;;;;;;2.70;1.60;;;;;;;11.47;100.00;154304.84;4959584;28;20537;-83
2023/05/11 05:22:51;;;;;;;4.33;2.20;;;;;;;11.48;100.00;154307.47;4950163;28;20475;-83
2023/05/11 05:25:18;;;;;;;2.10;1.70;;;;;;;11.50;100.00;154313.94;4952529;28;20473;-83
2023/05/11 05:27:45;;;;;;;2.70;1.70;;;;;;;11.46;100.00;154303.53;4954570;28;20465;-83
2023/05/11 05:30:18;;;;;;;4.00;1.70;;;;;;;11.53;100.00;154320.41;4954898;28;20483;-84
2023/05/11 05:32:45;;;;;;;2.60;1.70;;;;;;;11.52;100.00;154317.81;4968895;28;20868;-83
2023/05/11 05:35:12;;;;;;;2.60;1.73;;;;;;;11.50;100.00;154312.63;4931947;29;20558;-83
2023/05/11 05:37:39;;;;;;;1.87;1.67;;;;;;;11.48;100.00;154307.47;4960026;28;20502;-83
2023/05/11 05:40:07;;;;;;;2.20;2.00;;;;;;;11.50;100.00;154312.63;4936732;28;20467;-77
2023/05/11 05:42:39;;;;;;;2.20;1.67;;;;;;;11.50;100.00;154312.63;4945629;28;20460;-77
2023/05/11 05:45:08;;;;;;;2.17;1.80;;;;;;;11.54;100.00;154323.03;4956731;28;20466;-77
2023/05/11 05:47:36;;;;;;;3.30;2.03;;;;;;;11.59;100.00;154335.97;4943525;28;20838;-77
2023/05/11 05:50:03;;;;;;;2.17;1.80;;;;;;;11.62;100.00;154345.00;4964875;28;20460;-77
2023/05/11 05:52:29;;;;;;;2.40;1.80;;;;;;;11.62;100.00;154345.00;4961525;28;20470;-77
2023/05/11 05:54:57;;;;;;;1.60;1.50;;;;;;;11.65;100.00;154350.22;4953671;28;20510;-77
2023/05/11 05:57:24;;;;;;;2.40;1.80;;;;;;;11.69;100.00;154361.94;4953550;28;20510;-77
2023/05/11 05:59:51;;;;;;;1.83;1.30;;;;;;;11.73;100.00;154371.03;4953259;28;20563;-77
2023/05/11 06:02:19;;;;;;;2.10;1.70;;;;;;;11.72;100.00;154369.72;4956231;28;20759;-77
2023/05/11 06:04:47;;;;;;;4.90;1.73;;;;;;;11.73;100.00;154371.03;4962936;28;20475;-77
2023/05/11 06:07:14;;;;;;;3.20;1.67;;;;;;;11.74;100.00;154374.88;4963162;28;20894;-77
2023/05/11 06:09:40;;;;;;;2.97;1.80;;;;;;;11.79;100.00;154386.53;4962346;28;20594;-77
2023/05/11 06:12:08;;;;;;;1.93;1.60;;;;;;;11.79;100.00;154387.84;4950139;28;20531;-77
2023/05/11 06:14:37;;;;;;;1.60;1.40;;;;;;;11.79;100.00;154386.53;4950921;28;20459;-77
2023/05/11 06:17:03;;;;;;;2.57;1.40;;;;;;;11.78;100.00;154385.22;4935361;28;20461;-77
2023/05/11 06:19:30;;;;;;;1.80;1.40;;;;;;;11.83;100.00;154398.22;4975426;28;20503;-77
2023/05/11 06:21:58;;;;;;;1.90;1.50;;;;;;;11.83;100.00;154396.94;4949869;28;20464;-77
2023/05/11 06:24:25;;;;;;;2.10;1.33;;;;;;;11.82;100.00;154395.63;4943031;29;20453;-77
2023/05/11 06:26:52;;;;;;;2.20;1.53;;;;;;;11.84;100.00;154400.78;4966218;28;20528;-77
2023/05/11 06:29:21;;;;;;;1.93;1.20;;;;;;;11.88;100.00;154411.19;4955571;28;20468;-77
2023/05/11 06:31:51;;;;;;;1.77;1.30;;;;;;;11.92;100.00;154421.53;4952113;28;20566;-77
2023/05/11 06:34:18;;;;;;;2.60;1.63;;;;;;;11.85;100.00;154403.41;4949237;28;20461;-75
2023/05/11 06:36:46;;;;;;;4.00;1.70;;;;;;;11.89;100.00;154413.75;4935658;28;20965;-75
2023/05/11 06:39:14;;;;;;;1.87;1.50;;;;;;;11.96;100.00;154430.63;4951487;28;20551;-75
2023/05/11 06:41:40;;;;;;;1.97;1.47;;;;;;;12.01;100.00;154444.91;4949036;28;20505;-77
2023/05/11 06:44:07;;;;;;;2.67;1.80;;;;;;;12.05;100.00;154453.94;4955995;28;20465;-77
2023/05/11 06:46:37;;;;;;;2.13;1.93;;;;;;;12.05;100.00;154453.94;4953404;28;20539;-77
2023/05/11 06:49:08;;;;;;;1.70;1.60;;;;;;;11.99;100.00;154439.66;4958281;28;20610;-78
2023/05/11 06:51:35;;;;;;;3.47;2.40;;;;;;;12.00;100.00;154442.28;4973688;28;20963;-77
2023/05/11 06:54:02;;;;;;;2.67;2.40;;;;;;;11.99;100.00;154439.66;4941229;28;20523;-77
2023/05/11 06:56:30;;;;;;;2.53;2.07;;;;;;;12.07;100.00;154460.41;4946804;28;20452;-77
2023/05/11 06:58:57;;;;;;;3.10;2.33;;;;;;;12.06;100.00;154456.53;4933444;28;20502;-77
2023/05/11 07:01:23;;;;;;;3.30;1.67;;;;;;;12.10;100.00;154468.19;4970084;28;20805;-77
2023/05/11 07:03:50;;;;;;;2.73;1.90;;;;;;;11.97;100.00;154434.50;4972678;28;20462;-77
2023/05/11 07:06:16;;;;;;;2.10;1.60;;;;;;;12.01;100.00;154444.91;4946049;28;20453;-77
2023/05/11 07:08:43;;;;;;;3.40;2.00;;;;;;;12.12;100.00;154472.13;4971776;28;20838;-77
2023/05/11 07:11:11;;;;;;;3.17;1.93;;;;;;;12.13;100.00;154475.97;4964734;28;20476;-77
2023/05/11 07:13:40;;;;;;;2.30;2.10;;;;;;;12.12;100.00;154473.41;4972751;28;20457;-76
2023/05/11 07:16:06;;;;;;;1.70;1.60;;;;;;;12.16;100.00;154482.47;4955671;28;20803;-76
2023/05/11 07:18:33;;;;;;;1.80;1.70;;;;;;;12.13;100.00;154474.66;4976471;28;20457;-77
2023/05/11 07:20:59;;;;;;;2.33;1.83;;;;;;;12.06;100.00;154456.53;4961259;28;20449;-77
2023/05/11 07:23:26;;;;;;;2.97;2.00;;;;;;;12.03;100.00;154448.75;4966756;28;20826;-77
2023/05/11 07:25:56;;;;;;;3.60;1.50;;;;;;;12.04;100.00;154451.38;4978678;28;20465;-85
2023/05/11 07:28:22;;;;;;;1.83;1.70;;;;;;;12.10;100.00;154468.19;4959436;28;20895;-85
2023/05/11 07:30:55;;;;;;;3.27;1.70;;;;;;;12.14;100.00;154477.28;4977622;28;20475;-84
2023/05/11 07:33:32;;;;;;;4.00;1.80;;;;;;;12.20;100.00;154494.13;4984328;28;20429;-85
2023/05/11 07:35:58;;;;;;;2.93;2.10;;;;;;;12.16;100.00;154483.78;4951327;28;20469;-84
2023/05/11 07:38:25;;;;;;;2.33;1.77;;;;;;;12.15;100.00;154481.16;4951401;28;20444;-84
2023/05/11 07:40:51;;;;;;;3.53;1.97;;;;;;;12.12;100.00;154473.41;4956783;28;20934;-84
2023/05/11 07:43:18;;;;;;;2.60;1.90;;;;;;;12.08;100.00;154463.03;4968977;28;20449;-84
2023/05/11 07:45:44;;;;;;;1.93;1.70;;;;;;;12.09;100.00;154465.63;4975053;28;20444;-84
2023/05/11 07:48:12;;;;;;;2.60;1.77;;;;;;;12.14;100.00;154478.59;4967682;28;20450;-84
2023/05/11 07:50:40;;;;;;;3.47;2.00;;;;;;;12.13;100.00;154474.66;4978751;28;20467;-84
2023/05/11 07:53:06;;;;;;;3.10;2.20;;;;;;;12.08;100.00;154461.72;4969688;28;20470;-84
2023/05/11 07:55:32;;;;;;;5.53;2.00;;;;;;;12.03;100.00;154450.06;4972173;28;20482;-84
2023/05/11 07:57:59;;;;;;;5.10;1.80;;;;;;;12.08;100.00;154463.03;4962711;28;20457;-84
2023/05/11 08:00:26;;;;;;;2.70;2.20;;;;;;;12.12;100.00;154472.13;4963309;28;20458;-84
2023/05/11 08:02:53;;;;;;;2.10;1.77;;;;;;;12.07;100.00;154460.41;4958406;28;20445;-84
2023/05/11 08:05:21;;;;;;;3.17;1.97;;;;;;;12.04;100.00;154452.69;4967661;28;20525;-84
2023/05/11 08:07:47;;;;;;;2.27;2.07;;;;;;;12.04;100.00;154452.69;4977518;28;20557;-84
2023/05/11 08:10:14;;;;;;;2.33;1.63;;;;;;;12.07;100.00;154459.16;4988728;28;20493;-84
2023/05/11 08:12:40;;;;;;;2.27;1.93;;;;;;;12.06;100.00;154457.84;4971641;28;20496;-84
2023/05/11 08:15:08;;;;;;;2.70;2.50;;;;;;;12.13;100.00;154475.97;4958284;28;20456;-84
2023/05/11 08:17:35;;;;;;;3.00;2.20;;;;;;;12.21;100.00;154496.72;4970337;28;20562;-84
2023/05/11 08:20:01;;;;;;;1.93;1.63;;;;;;;12.20;100.00;154494.13;4946631;28;20465;-84
2023/05/11 08:22:29;;;;;;;1.90;1.67;;;;;;;12.18;100.00;154488.94;4969955;28;20507;-84
2023/05/11 08:24:56;;;;;;;2.37;2.00;;;;;;;12.23;100.00;154501.91;4961236;28;21047;-84
2023/05/11 08:27:22;;;;;;;6.20;1.80;;;;;;;12.23;100.00;154499.34;4953140;28;22017;-84
2023/05/11 08:29:49;;;;;;;2.40;1.83;;;;;;;12.16;100.00;154482.47;4960791;28;20472;-84
2023/05/11 08:32:15;;;;;;;2.53;1.73;;;;;;;12.30;100.00;154517.47;4972003;28;20843;-84
2023/05/11 08:34:42;;;;;;;3.37;2.23;;;;;;;12.44;100.00;154553.78;4955256;28;20473;-84
2023/05/11 08:37:09;;;;;;;6.03;2.30;;;;;;;12.42;100.00;154548.56;4959247;28;20457;-84
2023/05/11 08:39:36;;;;;;;2.73;1.97;;;;;;;12.43;100.00;154551.19;4972387;28;20903;-84
2023/05/11 08:42:05;;;;;;;2.60;2.40;;;;;;;12.48;100.00;154564.16;4960602;28;20458;-84
2023/05/11 08:44:32;;;;;;;4.00;2.23;;;;;;;12.54;100.00;154581.03;4962179;28;20459;-84
2023/05/11 08:46:59;;;;;;;3.50;2.33;;;;;;;12.48;100.00;154564.16;4961732;28;20526;-84
2023/05/11 08:49:26;;;;;;;2.40;2.13;;;;;;;12.47;100.00;154562.84;4964559;28;20447;-84
2023/05/11 08:51:53;;;;;;;4.53;3.27;;;;;;;12.49;100.00;154566.75;4971024;28;20476;-84
2023/05/11 08:54:19;;;;;;;2.50;2.00;;;;;;;12.48;100.00;154564.16;4946484;28;20470;-84
2023/05/11 08:56:47;;;;;;;2.70;2.33;;;;;;;12.52;100.00;154575.78;4967288;28;20518;-83
2023/05/11 08:59:15;;;;;;;4.00;2.80;;;;;;;12.57;100.00;154587.50;4964694;28;20478;-84
2023/05/11 09:01:41;;;;;;;3.00;2.43;;;;;;;12.53;100.00;154578.41;4949433;28;21033;-84
2023/05/11 09:04:09;;;;;;;2.70;2.30;;;;;;;12.52;100.00;154574.53;4970273;28;20508;-83
2023/05/11 09:06:36;;;;;;;4.00;2.03;;;;;;;12.53;100.00;154577.09;4945690;28;20461;-84
2023/05/11 09:09:03;;;;;;;2.80;2.20;;;;;;;12.52;100.00;154574.53;4971920;28;21007;-83
2023/05/11 09:11:30;;;;;;;4.70;2.50;;;;;;;12.50;100.00;154570.63;4964092;28;20474;-84
2023/05/11 09:13:58;;;;;;;3.07;2.50;;;;;;;12.57;100.00;154587.50;4954350;28;20458;-83
2023/05/11 09:16:25;;;;;;;7.07;3.13;;;;;;;12.46;100.00;154558.97;4965284;28;20823;-83
2023/05/11 09:18:53;;;;;;;6.00;3.63;;;;;;;12.52;100.00;154574.53;4961074;28;20489;-83
2023/05/11 09:21:20;;;;;;;4.80;3.10;;;;;;;12.51;100.00;154571.94;4956786;28;20544;-84
2023/05/11 09:23:49;;;;;;;4.27;3.10;;;;;;;12.50;100.00;154570.63;4964463;28;20467;-83
2023/05/11 09:26:16;;;;;;;3.10;2.40;;;;;;;12.40;100.00;154543.41;4959676;28;20509;-83
2023/05/11 09:28:50;;;;;;;2.70;2.40;;;;;;;12.42;100.00;154548.56;4941141;28;20465;-84
2023/05/11 09:34:15;;;;;;;4.30;3.00;;;;;;;12.45;100.00;154556.34;5075605;27;20623;-84
2023/05/11 09:36:42;;;;;;;3.50;2.90;;;;;;;12.46;100.00;154558.97;5064607;28;20449;-84
2023/05/11 09:39:08;;;;;;;3.60;3.00;;;;;;;12.47;100.00;154562.84;5042547;28;20458;-84
2023/05/11 09:41:35;;;;;;;3.97;3.20;;;;;;;12.51;100.00;154571.94;5070198;28;20547;-84
2023/05/11 09:44:07;;;;;;;5.60;3.37;;;;;;;12.48;100.00;154564.16;5077781;28;20458;-84
2023/05/11 09:46:34;;;;;;;2.97;2.70;;;;;;;12.42;100.00;154548.56;5062920;28;20805;-84
2023/05/11 09:49:01;;;;;;;3.33;3.03;;;;;;;12.41;100.00;154546.00;5063892;28;20482;-83
2023/05/11 09:51:31;;;;;;;4.57;4.10;;;;;;;12.42;100.00;154548.56;5065938;28;20488;-84
2023/05/11 09:53:58;;;;;;;4.17;3.30;;;;;;;12.44;100.00;154555.09;5056885;28;20937;-84
2023/05/11 09:56:43;;;;;;;3.50;3.20;;;;;;;12.42;100.00;154548.56;5074509;28;20957;-84
2023/05/11 09:59:11;;;;;;;3.30;3.00;;;;;;;12.45;100.00;154556.34;5074604;28;20449;-84
2023/05/11 10:01:38;;;;;;;3.37;3.07;;;;;;;12.46;100.00;154558.97;5064395;28;20446;-84
2023/05/11 10:04:07;;;;;;;3.50;2.70;;;;;;;12.49;100.00;154566.75;5064249;28;20450;-84
2023/05/11 10:06:46;;;;;;;3.20;2.70;;;;;;;12.51;100.00;154571.94;5073228;28;20447;-84
2023/05/11 10:09:13;;;;;;;2.80;2.20;;;;;;;12.53;100.00;154578.41;5045717;28;20430;-84
2023/05/11 10:11:43;;;;;;;2.37;2.17;;;;;;;12.56;100.00;154586.19;5053291;28;20451;-84
2023/05/11 10:14:11;;;;;;;4.10;2.30;;;;;;;12.54;100.00;154579.72;5063453;28;20477;-84
2023/05/11 10:16:38;;;;;;;4.27;2.90;;;;;;;12.56;100.00;154584.91;5078868;28;21049;-84
2023/05/11 10:19:05;;;;;;;5.60;2.60;;;;;;;12.63;100.00;154604.34;5064914;28;20458;-84
2023/05/11 10:21:33;;;;;;;3.90;3.30;;;;;;;12.58;100.00;154590.06;5080656;28;20960;-84
2023/05/11 10:24:03;;;;;;;3.20;2.30;;;;;;;12.49;100.00;154568.06;5059254;28;21167;-84
2023/05/11 10:26:30;;;;;;;2.53;2.23;;;;;;;12.35;100.00;154530.44;5063648;28;20480;-84
2023/05/11 10:28:57;;;;;;;3.10;2.80;;;;;;;12.23;100.00;154501.91;5073394;28;20847;-83
2023/05/11 10:31:24;;;;;;;2.93;2.53;;;;;;;12.18;100.00;154488.94;5067533;28;21033;-84
2023/05/11 10:33:51;;;;;;;5.47;3.23;;;;;;;12.29;100.00;154514.84;5072476;28;20482;-83
2023/05/11 10:36:17;;;;;;;4.83;3.50;;;;;;;12.33;100.00;154525.25;5055712;28;20439;-84
2023/05/11 10:38:44;;;;;;;4.13;3.73;;;;;;;12.26;100.00;154507.13;5075902;28;20434;-84
2023/05/11 10:41:25;;;;;;;4.90;3.67;;;;;;;12.23;100.00;154501.91;5059409;28;20472;-84
2023/05/11 10:44:10;;;;;;;4.57;3.77;;;;;;;12.33;100.00;154525.25;5061098;28;20455;-84
2023/05/11 10:46:49;;;;;;;5.37;4.87;;;;;;;12.35;100.00;154531.75;5049641;28;20505;-84
2023/05/11 10:49:30;;;;;;;3.50;3.17;;;;;;;12.20;100.00;154494.13;5047053;28;20432;-84
2023/05/11 10:52:16;;;;;;;4.57;3.27;;;;;;;12.16;100.00;154482.47;5040574;28;20459;-84
2023/05/11 10:54:53;;;;;;;3.70;3.10;;;;;;;12.18;100.00;154488.94;5045818;28;20442;-84
2023/05/11 10:57:33;;;;;;;3.60;2.93;;;;;;;12.26;100.00;154507.13;5044275;28;20454;-84
2023/05/11 11:00:20;;;;;;;3.00;2.70;;;;;;;12.22;100.00;154498.03;5059432;28;20447;-84
2023/05/11 11:02:46;;;;;;;2.50;2.30;;;;;;;12.19;100.00;154491.56;5066366;28;20466;-84
2023/05/11 11:05:16;;;;;;;3.20;2.63;;;;;;;12.21;100.00;154496.72;5060158;28;20451;-84
2023/05/11 11:07:59;;;;;;;2.63;2.33;;;;;;;12.31;100.00;154521.34;5051391;28;20521;-84
2023/05/11 11:10:31;;;;;;;2.53;2.23;;;;;;;12.36;100.00;154533.03;5056302;28;20455;-84
2023/05/11 11:13:07;;;;;;;3.37;2.20;;;;;;;12.33;100.00;154525.25;5057548;28;21008;-84
2023/05/11 11:16:07;;;;;;;2.43;2.23;;;;;;;12.40;100.00;154543.41;5063111;28;20435;-84
2023/05/11 11:18:34;;;;;;;3.23;2.50;;;;;;;12.42;100.00;154549.88;5057286;28;21034;-84
2023/05/11 11:21:01;;;;;;;5.00;2.60;;;;;;;12.52;100.00;154574.53;5065930;28;21004;-84
2023/05/11 11:23:41;;;;;;;3.00;2.50;;;;;;;12.46;100.00;154558.97;5059006;28;20472;-84
2023/05/11 11:26:08;;;;;;;3.13;2.80;;;;;;;12.46;100.00;154558.97;5029172;28;20518;-84